Time;durP1;ratioP1;P1;durP2;ratioP2;P2;SDS_P1;SDS_P2;PMS_P1;PMS_P2;Temp;Humidity;BMP_temperature;BMP_pressure;BME280_temperature;BME280_humidity;BME280_pressure;Samples;Min_cycle;Max_cycle;Signal;HPM_P1;HPM_P2
2023/04/12 00:01:58;;;;;;;;;2.75;2.00;;;;;;;;4997500;28;62068;-85
2023/04/12 00:04:25;;;;;;;;;4.75;1.00;;;;;;;;4968234;28;61980;-85
2023/04/12 00:06:53;;;;;;;;;4.50;1.50;;;;;;;;5004336;28;61935;-87
2023/04/12 00:09:18;;;;;;;;;1.50;1.50;;;;;;;;5003290;28;63120;-86
2023/04/12 00:11:43;;;;;;;;;3.00;2.00;;;;;;;;5003708;28;62181;-86
2023/04/12 00:14:09;;;;;;;;;2.00;1.00;;;;;;;;5004591;28;62228;-86
2023/04/12 00:16:35;;;;;;;;;1.75;1.00;;;;;;;;5004165;28;61918;-86
2023/04/12 00:19:02;;;;;;;;;2.00;1.25;;;;;;;;5002917;28;62818;-86
2023/04/12 00:21:27;;;;;;;;;1.75;0.25;;;;;;;;5004353;28;62057;-86
2023/04/12 00:23:53;;;;;;;;;4.25;2.00;;;;;;;;5003656;28;61811;-86
2023/04/12 00:26:20;;;;;;;;;2.00;1.00;;;;;;;;5003617;28;61995;-85
2023/04/12 00:28:45;;;;;;;;;3.25;2.00;;;;;;;;4984971;28;63696;-85
2023/04/12 00:31:11;;;;;;;;;4.25;1.50;;;;;;;;4986057;28;61883;-86
2023/04/12 00:33:36;;;;;;;;;3.00;1.00;;;;;;;;5003445;28;61792;-86
2023/04/12 00:36:01;;;;;;;;;1.00;1.00;;;;;;;;4989394;28;61899;-87
2023/04/12 00:38:27;;;;;;;;;2.75;2.00;;;;;;;;4966339;28;63602;-86
2023/04/12 00:40:52;;;;;;;;;3.00;1.50;;;;;;;;4982198;28;62140;-86
2023/04/12 00:43:17;;;;;;;;;2.50;1.00;;;;;;;;5004300;28;61887;-87
2023/04/12 00:45:46;;;;;;;;;2.00;2.00;;;;;;;;5004493;28;61872;-85
2023/04/12 00:48:11;;;;;;;;;2.25;1.00;;;;;;;;5003513;28;63030;-86
2023/04/12 00:50:36;;;;;;;;;4.75;2.25;;;;;;;;5003650;28;61933;-86
2023/04/12 00:53:02;;;;;;;;;2.00;2.00;;;;;;;;5003867;28;61934;-85
2023/04/12 00:55:27;;;;;;;;;2.00;2.00;;;;;;;;5004634;28;62201;-85
2023/04/12 00:57:53;;;;;;;;;4.75;2.00;;;;;;;;5002824;28;63704;-86
2023/04/12 01:00:18;;;;;;;;;2.50;1.00;;;;;;;;5003284;28;61985;-86
2023/04/12 01:02:49;;;;;;;;;3.50;3.25;;;;;;;;5003752;28;62249;-86
2023/04/12 01:05:22;;;;;;;;;2.75;2.75;;;;;;;;4985715;28;62157;-85
2023/04/12 01:07:57;;;;;;;;;1.75;1.75;;;;;;;;5003015;28;63069;-86
2023/04/12 01:10:22;;;;;;;;;3.50;2.75;;;;;;;;4983856;28;62007;-86
2023/04/12 01:12:47;;;;;;;;;1.50;1.50;;;;;;;;4983430;28;62359;-86
2023/04/12 01:15:15;;;;;;;;;3.25;1.75;;;;;;;;4965987;28;62084;-85
2023/04/12 01:17:48;;;;;;;;;3.00;1.75;;;;;;;;4976826;28;63764;-82
2023/04/12 01:20:15;;;;;;;;;2.75;2.00;;;;;;;;4985391;28;62191;-86
2023/04/12 01:22:59;;;;;;;;;2.50;1.25;;;;;;;;4984143;28;62153;-86
2023/04/12 01:25:38;;;;;;;;;0.00;0.00;;;;;;;;4983903;28;61744;-84
2023/04/12 01:28:03;;;;;;;;;1.25;1.00;;;;;;;;4965996;28;64152;-84
2023/04/12 01:30:30;;;;;;;;;2.50;0.25;;;;;;;;4983809;28;61923;-86
2023/04/12 01:32:56;;;;;;;;;3.25;2.00;;;;;;;;5003195;28;62363;-86
2023/04/12 01:35:25;;;;;;;;;3.75;3.00;;;;;;;;5002630;28;62400;-85
2023/04/12 01:37:50;;;;;;;;;1.75;1.75;;;;;;;;4971924;28;63889;-86
2023/04/12 01:40:16;;;;;;;;;1.00;1.00;;;;;;;;4965065;28;61882;-86
2023/04/12 01:42:42;;;;;;;;;2.50;2.00;;;;;;;;4965592;28;61822;-86
2023/04/12 01:45:07;;;;;;;;;2.00;0.00;;;;;;;;4967083;28;61738;-85
2023/04/12 01:47:33;;;;;;;;;1.00;1.00;;;;;;;;4965509;28;64678;-86
2023/04/12 01:50:10;;;;;;;;;1.00;1.00;;;;;;;;4965226;28;61913;-85
2023/04/12 01:52:37;;;;;;;;;1.00;1.00;;;;;;;;4983702;28;61964;-84
2023/04/12 01:55:04;;;;;;;;;1.00;1.00;;;;;;;;5003530;28;62124;-84
2023/04/12 01:57:30;;;;;;;;;2.50;1.00;;;;;;;;4984076;28;64737;-85
2023/04/12 01:59:57;;;;;;;;;2.00;1.00;;;;;;;;5001856;28;62000;-83
2023/04/12 02:02:22;;;;;;;;;1.75;1.75;;;;;;;;5002787;28;62147;-84
2023/04/12 02:04:48;;;;;;;;;1.75;1.75;;;;;;;;5002471;28;62060;-86
2023/04/12 02:07:15;;;;;;;;;1.00;1.00;;;;;;;;5001954;28;63205;-86
2023/04/12 02:09:40;;;;;;;;;2.75;2.00;;;;;;;;4984731;28;61912;-82
2023/04/12 02:12:06;;;;;;;;;1.00;1.00;;;;;;;;4985093;28;62205;-83
2023/04/12 02:14:31;;;;;;;;;1.00;1.00;;;;;;;;5003433;28;62229;-83
2023/04/12 02:17:01;;;;;;;;;3.50;2.50;;;;;;;;5001767;28;62988;-85
2023/04/12 02:19:26;;;;;;;;;2.00;2.00;;;;;;;;5001894;28;61925;-84
2023/04/12 02:21:51;;;;;;;;;1.00;1.00;;;;;;;;5002743;28;61781;-83
2023/04/12 02:24:16;;;;;;;;;1.00;1.00;;;;;;;;4984891;28;61872;-86
2023/04/12 02:26:42;;;;;;;;;0.00;0.00;;;;;;;;5001694;28;63186;-86
2023/04/12 02:29:08;;;;;;;;;1.00;1.00;;;;;;;;4983864;28;62015;-85
2023/04/12 02:31:34;;;;;;;;;1.00;1.00;;;;;;;;4984843;28;61983;-86
2023/04/12 02:33:59;;;;;;;;;0.75;0.75;;;;;;;;4984572;28;61995;-83
2023/04/12 02:36:25;;;;;;;;;5.00;1.00;;;;;;;;4984789;28;63504;-85
2023/04/12 02:38:50;;;;;;;;;1.00;1.00;;;;;;;;5002545;28;61925;-83
2023/04/12 02:41:16;;;;;;;;;0.00;0.00;;;;;;;;5003618;28;62267;-84
2023/04/12 02:43:41;;;;;;;;;2.50;1.00;;;;;;;;4989249;28;61729;-84
2023/04/12 02:46:06;;;;;;;;;2.00;1.00;;;;;;;;5005019;28;61870;-86
2023/04/12 02:48:32;;;;;;;;;0.00;0.00;;;;;;;;5004990;28;61838;-86
2023/04/12 02:50:57;;;;;;;;;1.00;1.00;;;;;;;;5005433;28;61980;-86
2023/04/12 02:53:22;;;;;;;;;0.25;0.00;;;;;;;;5005679;28;61810;-85
2023/04/12 02:55:47;;;;;;;;;1.75;0.00;;;;;;;;4974987;28;63922;-85
2023/04/12 02:58:13;;;;;;;;;1.50;1.00;;;;;;;;4968310;28;61927;-87
2023/04/12 03:00:38;;;;;;;;;0.75;0.50;;;;;;;;4985118;28;61770;-86
2023/04/12 03:03:03;;;;;;;;;1.00;1.00;;;;;;;;4968191;28;61799;-87
2023/04/12 03:05:28;;;;;;;;;2.00;0.50;;;;;;;;4967610;28;63681;-86
2023/04/12 03:07:54;;;;;;;;;1.00;0.00;;;;;;;;4985235;28;61706;-84
2023/04/12 03:10:19;;;;;;;;;0.00;0.00;;;;;;;;4984137;28;61781;-85
2023/04/12 03:12:45;;;;;;;;;0.00;0.00;;;;;;;;4986579;28;61831;-89
2023/04/12 03:15:10;;;;;;;;;1.00;1.00;;;;;;;;5004809;28;63027;-88
2023/04/12 03:17:35;;;;;;;;;2.00;1.00;;;;;;;;4987903;28;62005;-88
2023/04/12 03:20:09;;;;;;;;;2.00;0.50;;;;;;;;5005997;28;61899;-88
2023/04/12 03:22:35;;;;;;;;;1.00;1.00;;;;;;;;5006155;28;61880;-88
2023/04/12 03:25:01;;;;;;;;;0.00;0.00;;;;;;;;4987998;28;63698;-88
2023/04/12 03:27:26;;;;;;;;;0.00;0.00;;;;;;;;4987407;28;62005;-90
2023/04/12 03:29:52;;;;;;;;;0.00;0.00;;;;;;;;4987052;28;61915;-89
2023/04/12 03:32:17;;;;;;;;;0.00;0.00;;;;;;;;5004223;28;61808;-88
2023/04/12 03:34:44;;;;;;;;;0.00;0.00;;;;;;;;5004599;28;62042;-88
2023/04/12 03:37:09;;;;;;;;;0.00;0.00;;;;;;;;4980619;28;62005;-88
2023/04/12 03:39:35;;;;;;;;;0.00;0.00;;;;;;;;4985426;28;62538;-87
2023/04/12 03:42:00;;;;;;;;;0.25;0.00;;;;;;;;4985082;28;61944;-87
2023/04/12 03:44:25;;;;;;;;;1.75;0.00;;;;;;;;4967011;28;63991;-89
2023/04/12 03:46:51;;;;;;;;;0.00;0.00;;;;;;;;4984767;28;61744;-89
2023/04/12 03:49:16;;;;;;;;;0.00;0.00;;;;;;;;4984889;28;61921;-87
2023/04/12 03:51:42;;;;;;;;;0.00;0.00;;;;;;;;4983457;28;61891;-88
2023/04/12 03:54:14;;;;;;;;;0.00;0.00;;;;;;;;5003305;28;63036;-88
2023/04/12 03:56:39;;;;;;;;;0.00;0.00;;;;;;;;4986452;28;61875;-88
2023/04/12 03:59:06;;;;;;;;;0.00;0.00;;;;;;;;4985996;28;62051;-88
2023/04/12 04:01:32;;;;;;;;;0.00;0.00;;;;;;;;5004328;28;61861;-89
2023/04/12 04:03:57;;;;;;;;;0.00;0.00;;;;;;;;5003874;28;62978;-88
2023/04/12 04:06:22;;;;;;;;;0.00;0.00;;;;;;;;5004491;28;62017;-88
2023/04/12 04:08:48;;;;;;;;;0.00;0.00;;;;;;;;5004230;28;61973;-88
2023/04/12 04:11:13;;;;;;;;;0.00;0.00;;;;;;;;4986953;28;61750;-88
2023/04/12 04:13:38;;;;;;;;;0.00;0.00;;;;;;;;5003553;28;61983;-89
2023/04/12 04:16:04;;;;;;;;;1.00;0.00;;;;;;;;4985922;28;61751;-89
2023/04/12 04:18:30;;;;;;;;;0.50;0.00;;;;;;;;5003898;28;61845;-89
2023/04/12 04:20:55;;;;;;;;;0.00;0.00;;;;;;;;5004524;28;61878;-89
2023/04/12 04:23:22;;;;;;;;;0.25;0.00;;;;;;;;4986150;28;63644;-89
2023/04/12 04:25:47;;;;;;;;;0.50;0.00;;;;;;;;5004318;28;61887;-89
2023/04/12 04:28:14;;;;;;;;;0.00;0.00;;;;;;;;4985838;28;61862;-88
2023/04/12 04:30:40;;;;;;;;;0.00;0.00;;;;;;;;4985887;28;62278;-89
2023/04/12 04:33:05;;;;;;;;;0.00;0.00;;;;;;;;5000867;28;63602;-89
2023/04/12 04:35:31;;;;;;;;;0.00;0.00;;;;;;;;5004133;28;61925;-88
2023/04/12 04:37:57;;;;;;;;;0.00;0.00;;;;;;;;5003866;28;61937;-89
2023/04/12 04:40:23;;;;;;;;;0.00;0.00;;;;;;;;4985641;28;62031;-89
2023/04/12 04:42:53;;;;;;;;;0.00;0.00;;;;;;;;4984922;28;63643;-81
2023/04/12 04:45:25;;;;;;;;;0.00;0.00;;;;;;;;5003635;28;62362;-87
2023/04/12 04:47:52;;;;;;;;;0.00;0.00;;;;;;;;4985936;28;62219;-89
2023/04/12 04:50:17;;;;;;;;;0.75;0.00;;;;;;;;4985781;28;61895;-89
2023/04/12 04:52:43;;;;;;;;;0.00;0.00;;;;;;;;4985400;28;63770;-88
2023/04/12 04:55:09;;;;;;;;;0.75;0.50;;;;;;;;5003476;28;61772;-88
2023/04/12 04:57:35;;;;;;;;;0.00;0.00;;;;;;;;4985521;28;61927;-88
2023/04/12 05:00:01;;;;;;;;;0.00;0.00;;;;;;;;4986337;28;61777;-88
2023/04/12 05:02:26;;;;;;;;;0.00;0.00;;;;;;;;4984794;28;63820;-89
2023/04/12 05:04:55;;;;;;;;;0.00;0.00;;;;;;;;4985681;28;62297;-87
2023/04/12 05:07:20;;;;;;;;;0.75;0.75;;;;;;;;5003836;28;61816;-84
2023/04/12 05:13:05;;;;;;;;;2.00;0.00;;;;;;;;4916785;28;62395;-82
2023/04/12 05:15:33;;;;;;;;;0.00;0.00;;;;;;;;4921948;28;62041;-83
2023/04/12 05:18:02;;;;;;;;;1.50;0.25;;;;;;;;4916726;28;62114;-81
2023/04/12 05:20:27;;;;;;;;;0.00;0.00;;;;;;;;4907488;28;62415;-80
2023/04/12 05:22:52;;;;;;;;;1.00;1.00;;;;;;;;4924377;28;63006;-80
2023/04/12 05:25:19;;;;;;;;;2.00;1.25;;;;;;;;4903711;29;61896;-79
2023/04/12 05:27:44;;;;;;;;;0.50;0.50;;;;;;;;4903344;29;61907;-80
2023/04/12 05:30:10;;;;;;;;;0.00;0.00;;;;;;;;4904151;28;62343;-80
2023/04/12 05:32:35;;;;;;;;;0.75;0.75;;;;;;;;4905868;28;64532;-79
2023/04/12 05:35:00;;;;;;;;;0.00;0.00;;;;;;;;4906892;28;61984;-80
2023/04/12 05:37:27;;;;;;;;;1.75;0.50;;;;;;;;4903784;29;61966;-78
2023/04/12 05:39:52;;;;;;;;;1.00;0.00;;;;;;;;4905389;28;62088;-79
2023/04/12 05:42:17;;;;;;;;;2.75;0.25;;;;;;;;4905054;28;64991;-80
2023/04/12 05:44:47;;;;;;;;;0.25;0.25;;;;;;;;4922669;28;61877;-80
2023/04/12 05:47:12;;;;;;;;;3.00;0.00;;;;;;;;4968381;28;62041;-82
2023/04/12 05:49:38;;;;;;;;;1.50;0.75;;;;;;;;4983927;28;64107;-83
2023/04/12 05:52:04;;;;;;;;;1.00;1.00;;;;;;;;5000738;28;62073;-83
2023/04/12 05:54:38;;;;;;;;;0.00;0.00;;;;;;;;5003150;28;61792;-84
2023/04/12 05:57:03;;;;;;;;;1.50;1.00;;;;;;;;5000503;28;61952;-81
2023/04/12 06:11:39;;;;;;;;;1.00;0.00;;;;;;;;4998884;28;61918;-80
2023/04/12 06:14:05;;;;;;;;;0.75;0.75;;;;;;;;5000745;28;61998;-79
2023/04/12 06:16:41;;;;;;;;;1.00;1.00;;;;;;;;4982912;28;61861;-81
2023/04/12 06:19:06;;;;;;;;;4.00;2.00;;;;;;;;4983141;28;62045;-82
2023/04/12 06:21:31;;;;;;;;;3.00;1.75;;;;;;;;4983287;28;62142;-84
2023/04/12 06:24:33;;;;;;;;;2.00;2.00;;;;;;;;4983260;28;64649;-86
2023/04/12 06:26:59;;;;;;;;;2.50;2.00;;;;;;;;4986541;28;62157;-83
2023/04/12 06:29:24;;;;;;;;;2.75;1.75;;;;;;;;5002315;28;61938;-79
2023/04/12 06:31:50;;;;;;;;;7.25;3.00;;;;;;;;5001900;28;61904;-79
2023/04/12 06:34:15;;;;;;;;;3.25;2.25;;;;;;;;5001375;28;62821;-81
2023/04/12 06:36:42;;;;;;;;;6.00;4.00;;;;;;;;4984427;28;61954;-79
2023/04/12 06:39:08;;;;;;;;;3.25;3.00;;;;;;;;5001687;28;61745;-79
2023/04/12 06:41:33;;;;;;;;;3.50;2.00;;;;;;;;5001697;28;61924;-78
2023/04/12 06:44:00;;;;;;;;;3.00;3.00;;;;;;;;4983065;28;63736;-79
2023/04/12 06:46:25;;;;;;;;;1.00;1.00;;;;;;;;4984086;28;61766;-78
2023/04/12 06:48:51;;;;;;;;;2.00;1.00;;;;;;;;5001701;28;61950;-78
2023/04/12 06:51:16;;;;;;;;;0.00;0.00;;;;;;;;5001509;28;62465;-77
2023/04/12 06:53:41;;;;;;;;;1.50;1.50;;;;;;;;4982621;28;63979;-78
2023/04/12 06:56:09;;;;;;;;;0.75;0.75;;;;;;;;4984016;28;61784;-78
2023/04/12 06:58:35;;;;;;;;;5.00;1.25;;;;;;;;5001228;28;61766;-78
2023/04/12 07:01:06;;;;;;;;;1.00;1.00;;;;;;;;4982917;28;62022;-78
2023/04/12 07:03:32;;;;;;;;;1.00;1.00;;;;;;;;4982952;28;63732;-80
2023/04/12 07:05:58;;;;;;;;;3.50;1.00;;;;;;;;5001464;28;62219;-78
2023/04/12 07:08:24;;;;;;;;;1.75;1.75;;;;;;;;4985087;28;61812;-79
2023/04/12 07:10:53;;;;;;;;;0.75;0.75;;;;;;;;4980791;28;61852;-78
2023/04/12 07:13:18;;;;;;;;;2.50;1.00;;;;;;;;4992020;28;61980;-78
2023/04/12 07:15:43;;;;;;;;;4.00;1.00;;;;;;;;5001452;28;62370;-78
2023/04/12 07:18:12;;;;;;;;;1.00;1.00;;;;;;;;5000260;28;61913;-78
2023/04/12 07:20:37;;;;;;;;;0.50;0.00;;;;;;;;4981247;28;62068;-78
2023/04/12 07:23:02;;;;;;;;;0.50;0.25;;;;;;;;4966536;28;64626;-78
2023/04/12 07:25:28;;;;;;;;;2.75;2.00;;;;;;;;4983693;28;61852;-78
2023/04/12 07:27:53;;;;;;;;;4.00;1.00;;;;;;;;4983749;28;62136;-78
2023/04/12 07:30:18;;;;;;;;;0.75;0.75;;;;;;;;4973273;28;62206;-78
2023/04/12 07:32:43;;;;;;;;;3.00;2.00;;;;;;;;4979349;28;64730;-78
2023/04/12 07:35:09;;;;;;;;;1.00;1.00;;;;;;;;5004615;28;61714;-78
2023/04/12 07:37:34;;;;;;;;;3.00;3.00;;;;;;;;4986671;28;61805;-78
2023/04/12 07:40:00;;;;;;;;;3.00;2.00;;;;;;;;5004099;28;61713;-78
2023/04/12 07:42:25;;;;;;;;;2.00;2.00;;;;;;;;4985846;28;63690;-79
2023/04/12 07:44:51;;;;;;;;;1.50;1.00;;;;;;;;4978159;28;61784;-78
2023/04/12 07:47:16;;;;;;;;;1.00;1.00;;;;;;;;5002340;28;61809;-79
2023/04/12 07:49:41;;;;;;;;;1.00;1.00;;;;;;;;4986488;28;61817;-78
2023/04/12 07:52:07;;;;;;;;;2.00;1.00;;;;;;;;4986203;28;63636;-78
2023/04/12 07:54:35;;;;;;;;;3.75;1.00;;;;;;;;4986391;28;61917;-78
2023/04/12 07:57:02;;;;;;;;;2.25;0.75;;;;;;;;4986679;28;61926;-78
2023/04/12 08:00:00;;;;;;;;;1.00;1.00;;;;;;;;4986235;28;62103;-89
2023/04/12 08:02:33;;;;;;;;;1.75;0.25;;;;;;;;4978148;28;64010;-85
2023/04/12 08:04:59;;;;;;;;;1.00;0.00;;;;;;;;4985456;28;62195;-85
2023/04/12 08:07:26;;;;;;;;;0.00;0.00;;;;;;;;5003500;28;62510;-85
2023/04/12 08:09:55;;;;;;;;;1.50;1.00;;;;;;;;4986398;28;62194;-85
2023/04/12 08:12:36;;;;;;;;;1.25;1.25;;;;;;;;4984403;28;64088;-86
2023/04/12 08:15:05;;;;;;;;;1.25;0.00;;;;;;;;4986277;28;62037;-85
2023/04/12 08:17:35;;;;;;;;;0.00;0.00;;;;;;;;5003874;28;61777;-85
2023/04/12 08:20:03;;;;;;;;;0.00;0.00;;;;;;;;4988960;28;61887;-85
2023/04/12 08:22:31;;;;;;;;;0.25;0.25;;;;;;;;4984201;28;63523;-85
2023/04/12 08:24:57;;;;;;;;;0.00;0.00;;;;;;;;5004021;28;61951;-84
2023/04/12 08:27:31;;;;;;;;;3.00;0.00;;;;;;;;5003297;28;61689;-86
2023/04/12 08:29:59;;;;;;;;;0.00;0.00;;;;;;;;4985711;28;62261;-85
2023/04/12 08:32:25;;;;;;;;;0.75;0.75;;;;;;;;4984507;28;62899;-84
2023/04/12 08:34:51;;;;;;;;;0.25;0.25;;;;;;;;4995655;28;61767;-83
2023/04/12 08:37:34;;;;;;;;;0.25;0.25;;;;;;;;5003230;28;61713;-84
2023/04/12 08:40:03;;;;;;;;;0.75;0.00;;;;;;;;4975387;28;62159;-85
2023/04/12 08:42:40;;;;;;;;;0.00;0.00;;;;;;;;4983055;28;62282;-85
2023/04/12 08:45:31;;;;;;;;;0.00;0.00;;;;;;;;4959058;28;61826;-86
2023/04/12 08:48:31;;;;;;;;;0.00;0.00;;;;;;;;4979088;28;62015;-83
2023/04/12 08:51:07;;;;;;;;;0.00;0.00;;;;;;;;4966439;28;61859;-85
2023/04/12 08:53:32;;;;;;;;;0.00;0.00;;;;;;;;5003085;28;62579;-86
2023/04/12 08:55:57;;;;;;;;;0.00;0.00;;;;;;;;4973858;28;62239;-86
2023/04/12 08:58:32;;;;;;;;;0.00;0.00;;;;;;;;4983285;28;62018;-86
2023/04/12 09:00:59;;;;;;;;;1.75;0.00;;;;;;;;4992972;28;61856;-86
2023/04/12 09:03:50;;;;;;;;;0.00;0.00;;;;;;;;4966605;28;63208;-85
2023/04/12 09:06:24;;;;;;;;;0.00;0.00;;;;;;;;4977412;28;61907;-85
2023/04/12 09:08:56;;;;;;;;;0.00;0.00;;;;;;;;4978562;28;62206;-85
2023/04/12 09:11:29;;;;;;;;;0.25;0.25;;;;;;;;4985547;28;62382;-86
2023/04/12 09:13:56;;;;;;;;;0.00;0.00;;;;;;;;4992752;28;62908;-85
2023/04/12 09:16:38;;;;;;;;;0.00;0.00;;;;;;;;4981776;28;62089;-86
2023/04/12 09:19:09;;;;;;;;;0.00;0.00;;;;;;;;4987125;28;61696;-86
2023/04/12 09:21:59;;;;;;;;;0.00;0.00;;;;;;;;4982133;28;61914;-86
2023/04/12 09:24:33;;;;;;;;;0.00;0.00;;;;;;;;4967344;28;63163;-84
2023/04/12 09:27:27;;;;;;;;;0.00;0.00;;;;;;;;4973859;28;61927;-86
2023/04/12 09:30:28;;;;;;;;;0.00;0.00;;;;;;;;4978123;28;62231;-87
2023/04/12 09:33:09;;;;;;;;;0.25;0.00;;;;;;;;4978138;28;62112;-86
2023/04/12 09:35:35;;;;;;;;;0.00;0.00;;;;;;;;4977207;28;62153;-85
2023/04/12 09:38:14;;;;;;;;;1.00;0.00;;;;;;;;4992686;28;61871;-87
2023/04/12 09:44:29;;;;;;;;;0.00;0.00;;;;;;;;4921674;28;62149;-87
2023/04/12 09:47:04;;;;;;;;;0.00;0.00;;;;;;;;4939333;28;62226;-87
2023/04/12 09:50:06;;;;;;;;;;;;;;;;;;;;;
2023/04/12 09:56:09;;;;;;;;;0.00;0.00;;;;;;;;4871405;29;62009;-88
2023/04/12 10:33:15;;;;;;;;;0.00;0.00;;;;;;;;4853939;29;62633;-84
2023/04/12 10:36:09;;;;;;;;;;;;;;;;;;;;;
2023/04/12 10:39:14;;;;;;;;;2.00;1.00;;;;;;;;4863621;29;73955;-87
2023/04/12 10:42:02;;;;;;;;;1.00;0.00;;;;;;;;4833997;29;61919;-85
2023/04/12 10:45:09;;;;;;;;;1.00;1.00;;;;;;;;4823166;29;61857;-87
2023/04/12 11:15:33;;;;;;;;;0.00;0.00;;;;;;;;4866566;29;62111;-85
2023/04/12 11:21:26;;;;;;;;;2.00;1.00;;;;;;;;4882498;29;62041;-82
2023/04/12 11:24:10;;;;;;;;;0.00;0.00;;;;;;;;4885403;29;63868;-83
2023/04/12 11:45:17;;;;;;;;;;;;;;;;;;;;;
2023/04/12 11:47:53;;;;;;;;;0.00;0.00;;;;;;;;4860560;29;90928;-84
2023/04/12 11:50:36;;;;;;;;;2.00;0.00;;;;;;;;4847939;29;62022;-84
2023/04/12 11:53:11;;;;;;;;;0.50;0.00;;;;;;;;4860712;29;62013;-83
2023/04/12 11:55:39;;;;;;;;;0.00;0.00;;;;;;;;4899568;28;62123;-82
2023/04/12 11:58:12;;;;;;;;;0.00;0.00;;;;;;;;4958625;28;63842;-83
2023/04/12 12:01:07;;;;;;;;;1.00;0.00;;;;;;;;4972995;28;61986;-83
2023/04/12 12:03:40;;;;;;;;;1.00;0.00;;;;;;;;4967230;28;62034;-86
2023/04/12 12:06:20;;;;;;;;;0.50;0.00;;;;;;;;4970151;28;61980;-84
2023/04/12 12:08:52;;;;;;;;;0.00;0.00;;;;;;;;4970801;28;63474;-84
2023/04/12 12:11:22;;;;;;;;;0.50;0.00;;;;;;;;4987266;28;61940;-83
2023/04/12 12:13:52;;;;;;;;;1.00;0.00;;;;;;;;4975024;28;61782;-84
2023/04/12 12:16:18;;;;;;;;;0.00;0.00;;;;;;;;4977491;28;62802;-84
2023/04/12 12:18:51;;;;;;;;;0.00;0.00;;;;;;;;4973979;28;63352;-83
2023/04/12 12:21:22;;;;;;;;;0.00;0.00;;;;;;;;4991185;28;62231;-85
2023/04/12 12:23:47;;;;;;;;;1.00;0.00;;;;;;;;4981325;28;62031;-79
2023/04/12 12:26:31;;;;;;;;;0.50;0.50;;;;;;;;4983868;28;61893;-79
2023/04/12 12:29:04;;;;;;;;;0.00;0.00;;;;;;;;4980883;28;63967;-87
2023/04/12 12:31:53;;;;;;;;;0.00;0.00;;;;;;;;4968411;28;61859;-86
2023/04/12 12:40:22;;;;;;;;;0.00;0.00;;;;;;;;4901387;29;62297;-86
2023/04/12 12:42:48;;;;;;;;;0.00;0.00;;;;;;;;4901718;29;62035;-79
2023/04/12 12:45:37;;;;;;;;;0.00;0.00;;;;;;;;4916813;28;62720;-86
2023/04/12 12:48:08;;;;;;;;;0.00;0.00;;;;;;;;4907222;28;62243;-84
2023/04/12 12:50:52;;;;;;;;;0.00;0.00;;;;;;;;4911278;28;64010;-83
2023/04/12 12:53:17;;;;;;;;;0.00;0.00;;;;;;;;4909898;28;61826;-84
2023/04/12 12:55:48;;;;;;;;;0.00;0.00;;;;;;;;4910185;28;62079;-85
2023/04/12 12:58:13;;;;;;;;;1.00;0.00;;;;;;;;4903101;28;62150;-83
2023/04/12 13:00:40;;;;;;;;;0.00;0.00;;;;;;;;4905400;28;63624;-75
2023/04/12 13:03:05;;;;;;;;;0.00;0.00;;;;;;;;4903766;29;61857;-83
2023/04/12 13:05:38;;;;;;;;;0.67;0.00;;;;;;;;4904119;28;62063;-84
2023/04/12 13:08:06;;;;;;;;;0.00;0.00;;;;;;;;4902495;28;62162;-83
2023/04/12 13:10:31;;;;;;;;;0.00;0.00;;;;;;;;4901116;28;63733;-84
2023/04/12 13:12:57;;;;;;;;;0.00;0.00;;;;;;;;4902639;28;61959;-83
2023/04/12 13:15:45;;;;;;;;;0.00;0.00;;;;;;;;4886717;29;61974;-85
2023/04/12 13:18:11;;;;;;;;;0.00;0.00;;;;;;;;4980629;28;61919;-83
2023/04/12 13:20:36;;;;;;;;;0.00;0.00;;;;;;;;4984126;28;64656;-82
2023/04/12 13:23:01;;;;;;;;;0.00;0.00;;;;;;;;4985252;28;61835;-84
2023/04/12 13:25:27;;;;;;;;;0.00;0.00;;;;;;;;4973741;28;61883;-83
2023/04/12 13:27:52;;;;;;;;;0.33;0.00;;;;;;;;4981435;28;62584;-83
2023/04/12 13:30:20;;;;;;;;;1.00;0.00;;;;;;;;4981987;28;62866;-83
2023/04/12 13:32:48;;;;;;;;;0.00;0.00;;;;;;;;4995341;28;61823;-83
2023/04/12 13:35:13;;;;;;;;;0.00;0.00;;;;;;;;4985337;28;61874;-83
2023/04/12 13:37:39;;;;;;;;;0.00;0.00;;;;;;;;4985045;28;61972;-84
2023/04/12 13:40:11;;;;;;;;;0.00;0.00;;;;;;;;4984207;28;63584;-84
2023/04/12 13:42:36;;;;;;;;;1.00;1.00;;;;;;;;4975555;28;61911;-83
2023/04/12 13:45:11;;;;;;;;;2.00;0.00;;;;;;;;4983672;28;62118;-87
2023/04/12 13:47:49;;;;;;;;;0.00;0.00;;;;;;;;4966141;28;61690;-85
2023/04/12 13:50:15;;;;;;;;;0.00;0.00;;;;;;;;4964594;28;63611;-84
2023/04/12 13:52:43;;;;;;;;;0.00;0.00;;;;;;;;4945565;28;61827;-85
2023/04/12 13:55:14;;;;;;;;;0.67;0.00;;;;;;;;4964234;28;61977;-85
2023/04/12 13:57:39;;;;;;;;;2.67;0.00;;;;;;;;4964714;28;61882;-84
2023/04/12 14:00:05;;;;;;;;;1.00;0.00;;;;;;;;4959748;28;64152;-83
2023/04/12 14:02:34;;;;;;;;;0.00;0.00;;;;;;;;4961170;28;61861;-83
2023/04/12 14:04:59;;;;;;;;;0.00;0.00;;;;;;;;4982220;28;61994;-83
2023/04/12 14:07:28;;;;;;;;;0.00;0.00;;;;;;;;4961902;28;62103;-83
2023/04/12 14:09:56;;;;;;;;;1.67;0.00;;;;;;;;4980548;28;61937;-83
2023/04/12 14:12:21;;;;;;;;;1.00;0.00;;;;;;;;4981519;28;62036;-83
2023/04/12 14:14:47;;;;;;;;;0.00;0.00;;;;;;;;4964900;28;61803;-83
2023/04/12 14:17:12;;;;;;;;;0.00;0.00;;;;;;;;4965108;28;62207;-83
2023/04/12 14:19:37;;;;;;;;;0.00;0.00;;;;;;;;4964360;28;63733;-82
2023/04/12 14:22:02;;;;;;;;;0.00;0.00;;;;;;;;4964348;28;61755;-82
2023/04/12 14:24:28;;;;;;;;;0.00;0.00;;;;;;;;4964712;28;61888;-83
2023/04/12 14:26:53;;;;;;;;;1.00;0.00;;;;;;;;4964578;28;61982;-83
2023/04/12 14:29:18;;;;;;;;;0.00;0.00;;;;;;;;4963519;28;63519;-83
2023/04/12 14:31:44;;;;;;;;;0.00;0.00;;;;;;;;4964341;28;61886;-82
2023/04/12 14:34:09;;;;;;;;;2.67;0.00;;;;;;;;4963935;28;61978;-83
2023/04/12 14:36:35;;;;;;;;;0.00;0.00;;;;;;;;4964390;28;61980;-82
2023/04/12 14:39:02;;;;;;;;;0.00;0.00;;;;;;;;4965342;28;63589;-82
2023/04/12 14:41:30;;;;;;;;;0.00;0.00;;;;;;;;4970561;28;61894;-83
2023/04/12 14:43:56;;;;;;;;;0.33;0.00;;;;;;;;4975495;28;62006;-83
2023/04/12 14:46:22;;;;;;;;;0.00;0.00;;;;;;;;4986685;28;62089;-82
2023/04/12 14:48:47;;;;;;;;;0.00;0.00;;;;;;;;4993437;28;61976;-84
2023/04/12 14:51:18;;;;;;;;;0.00;0.00;;;;;;;;4997971;28;63238;-84
2023/04/12 14:53:44;;;;;;;;;0.00;0.00;;;;;;;;4981558;28;62270;-82
2023/04/12 14:56:17;;;;;;;;;0.00;0.00;;;;;;;;4985955;28;62090;-83
2023/04/12 14:58:52;;;;;;;;;0.00;0.00;;;;;;;;4997262;28;61948;-83
2023/04/12 15:01:56;;;;;;;;;;;;;;;;;;;;;
2023/04/12 15:04:57;;;;;;;;;0.00;0.00;;;;;;;;4999003;28;71990;-83
2023/04/12 15:07:38;;;;;;;;;0.00;0.00;;;;;;;;4966242;28;62282;-83
2023/04/12 15:10:14;;;;;;;;;0.00;0.00;;;;;;;;4980324;28;64963;-83
2023/04/12 15:13:33;;;;;;;;;0.33;0.00;;;;;;;;4998659;28;62312;-83
2023/04/12 15:25:58;;;;;;;;;0.00;0.00;;;;;;;;4843949;29;61812;-83
2023/04/12 15:41:29;;;;;;;;;0.00;0.00;;;;;;;;4785976;29;61931;-84
2023/04/12 15:43:55;;;;;;;;;0.00;0.00;;;;;;;;4789932;29;62084;-79
2023/04/12 15:46:20;;;;;;;;;0.00;0.00;;;;;;;;4800663;29;61983;-79
2023/04/12 15:48:46;;;;;;;;;1.00;0.00;;;;;;;;4824005;29;61785;-79
2023/04/12 15:51:22;;;;;;;;;0.00;0.00;;;;;;;;4826869;29;61891;-84
2023/04/12 15:53:48;;;;;;;;;0.00;0.00;;;;;;;;4824078;29;61933;-83
2023/04/12 15:56:36;;;;;;;;;0.00;0.00;;;;;;;;4813020;29;63706;-86
2023/04/12 15:59:13;;;;;;;;;0.00;0.00;;;;;;;;4801304;29;62471;-86
2023/04/12 16:01:44;;;;;;;;;2.00;0.00;;;;;;;;4853752;29;62071;-84
2023/04/12 16:10:40;;;;;;;;;;;;;;;;;;;;;
2023/04/12 16:13:34;;;;;;;;;;;;;;;;;;;;;
2023/04/12 16:16:12;;;;;;;;;0.00;0.00;;;;;;;;4922339;28;68186;-86
2023/04/12 16:18:58;;;;;;;;;0.00;0.00;;;;;;;;4930125;28;61997;-85
2023/04/12 16:21:25;;;;;;;;;0.00;0.00;;;;;;;;4949550;28;61909;-83
2023/04/12 16:23:58;;;;;;;;;0.00;0.00;;;;;;;;4935977;28;61929;-86
2023/04/12 16:26:29;;;;;;;;;0.00;0.00;;;;;;;;4925875;28;62180;-85
2023/04/12 16:29:05;;;;;;;;;0.00;0.00;;;;;;;;4920676;28;62299;-85
2023/04/12 16:31:31;;;;;;;;;0.00;0.00;;;;;;;;4904914;28;62009;-85
2023/04/12 16:36:53;;;;;;;;;1.00;0.00;;;;;;;;4943700;28;62775;-84
2023/04/12 16:39:18;;;;;;;;;0.00;0.00;;;;;;;;4941608;28;62352;-84
2023/04/12 16:41:45;;;;;;;;;0.00;0.00;;;;;;;;4941525;28;62169;-83
2023/04/12 16:44:14;;;;;;;;;0.00;0.00;;;;;;;;4972934;28;61756;-83
2023/04/12 16:46:40;;;;;;;;;0.00;0.00;;;;;;;;5003462;28;61811;-82
2023/04/12 16:49:05;;;;;;;;;0.00;0.00;;;;;;;;4984001;28;65173;-83
2023/04/12 16:51:31;;;;;;;;;0.00;0.00;;;;;;;;5002764;28;62332;-83
2023/04/12 16:53:57;;;;;;;;;0.00;0.00;;;;;;;;4984430;28;61737;-82
2023/04/12 16:56:23;;;;;;;;;0.00;0.00;;;;;;;;4984967;28;62070;-83
2023/04/12 16:58:49;;;;;;;;;0.00;0.00;;;;;;;;5002559;28;62652;-84
2023/04/12 17:01:15;;;;;;;;;0.00;0.00;;;;;;;;4981079;28;61794;-85
2023/04/12 17:03:40;;;;;;;;;1.25;0.00;;;;;;;;4995749;28;61891;-85
2023/04/12 17:06:05;;;;;;;;;0.75;0.00;;;;;;;;4976636;28;61902;-83
2023/04/12 17:08:31;;;;;;;;;0.00;0.00;;;;;;;;4976999;28;63636;-84
2023/04/12 17:10:56;;;;;;;;;0.00;0.00;;;;;;;;4977954;28;62746;-83
2023/04/12 17:13:21;;;;;;;;;0.00;0.00;;;;;;;;4980890;28;61941;-83
2023/04/12 17:15:47;;;;;;;;;0.00;0.00;;;;;;;;4979615;28;62087;-83
2023/04/12 17:18:12;;;;;;;;;1.00;1.00;;;;;;;;4971271;28;64018;-78
2023/04/12 17:20:37;;;;;;;;;1.25;1.25;;;;;;;;4970952;28;62249;-78
2023/04/12 17:23:03;;;;;;;;;0.00;0.00;;;;;;;;4973486;28;62280;-78
2023/04/12 17:25:30;;;;;;;;;0.00;0.00;;;;;;;;4987470;28;61816;-78
2023/04/12 17:27:59;;;;;;;;;0.00;0.00;;;;;;;;4970540;28;64217;-84